createdAt,value
2023-04-28T00:00:14.588Z,1.87
2023-04-28T00:02:43.275Z,1.80
2023-04-28T00:05:14.387Z,1.74
2023-04-28T00:07:43.111Z,1.70
2023-04-28T00:10:12.004Z,1.68
2023-04-28T00:12:40.528Z,1.63
2023-04-28T00:15:09.801Z,1.63
2023-04-28T00:17:38.354Z,1.65
2023-04-28T00:20:08.323Z,1.65
2023-04-28T00:22:38.015Z,1.61
2023-04-28T00:25:07.245Z,1.62
2023-04-28T00:27:36.670Z,1.58
2023-04-28T00:30:06.664Z,1.55
2023-04-28T00:32:35.065Z,1.54
2023-04-28T00:35:03.780Z,1.54
2023-04-28T00:37:32.553Z,1.51
2023-04-28T00:40:02.687Z,1.47
2023-04-28T00:42:31.479Z,1.41
2023-04-28T00:45:05.877Z,1.39
2023-04-28T00:47:35.137Z,1.38
2023-04-28T00:50:05.845Z,1.36
2023-04-28T00:52:35.437Z,1.37
2023-04-28T00:55:06.450Z,1.35
2023-04-28T00:57:35.397Z,1.34
2023-04-28T01:00:04.623Z,1.33
2023-04-28T01:02:33.511Z,1.31
2023-04-28T01:05:03.624Z,1.32
2023-04-28T01:07:35.002Z,1.34
2023-04-28T01:10:08.122Z,1.35
2023-04-28T01:12:37.104Z,1.39
2023-04-28T01:15:06.942Z,1.41
2023-04-28T01:17:35.929Z,1.44
2023-04-28T01:20:05.752Z,1.48
2023-04-28T01:22:34.227Z,1.52
2023-04-28T01:25:04.402Z,1.57
2023-04-28T01:27:33.296Z,1.60
2023-04-28T01:30:02.553Z,1.62
2023-04-28T01:32:31.000Z,1.63
2023-04-28T01:34:59.417Z,1.65
2023-04-28T01:37:28.629Z,1.66
2023-04-28T01:39:57.149Z,1.68
2023-04-28T01:42:28.105Z,1.67
2023-04-28T01:44:56.574Z,1.66
2023-04-28T01:47:25.126Z,1.67
2023-04-28T01:49:54.018Z,1.71
2023-04-28T01:52:24.287Z,1.75
2023-04-28T01:54:53.361Z,1.76
2023-04-28T01:57:22.489Z,1.82
2023-04-28T01:59:53.695Z,1.89
2023-04-28T02:02:22.453Z,1.94
2023-04-28T02:04:51.243Z,1.97
2023-04-28T02:07:19.839Z,2.04
2023-04-28T02:09:48.721Z,2.06
2023-04-28T02:12:17.689Z,2.06
2023-04-28T02:14:47.327Z,2.08
2023-04-28T02:17:17.153Z,2.11
2023-04-28T02:19:45.525Z,2.10
2023-04-28T02:22:14.612Z,2.12
2023-04-28T02:24:43.462Z,2.13
2023-04-28T02:27:11.815Z,2.16
2023-04-28T02:29:40.097Z,2.17
2023-04-28T02:32:08.857Z,2.19
2023-04-28T02:34:38.771Z,2.20
2023-04-28T02:37:07.620Z,2.20
2023-04-28T02:39:37.149Z,2.21
2023-04-28T02:42:07.052Z,2.22
2023-04-28T02:44:35.558Z,2.22
2023-04-28T02:47:04.025Z,2.21
2023-04-28T02:49:32.653Z,2.21
2023-04-28T02:52:02.758Z,2.19
2023-04-28T02:54:31.211Z,2.21
2023-04-28T02:57:00.473Z,2.21
2023-04-28T02:59:29.599Z,2.20
2023-04-28T03:02:03.022Z,2.18
2023-04-28T03:04:31.566Z,2.16
2023-04-28T03:07:00.115Z,2.14
2023-04-28T03:09:30.066Z,2.12
2023-04-28T03:11:58.845Z,2.13
2023-04-28T03:14:27.480Z,2.13
2023-04-28T03:16:58.195Z,2.10
2023-04-28T03:19:27.975Z,2.11
2023-04-28T03:21:57.171Z,2.11
2023-04-28T03:24:25.937Z,2.07
2023-04-28T03:26:56.263Z,2.02
2023-04-28T03:29:25.861Z,1.99
2023-04-28T03:31:54.886Z,1.96
2023-04-28T03:34:23.745Z,1.91
2023-04-28T03:36:52.485Z,1.86
2023-04-28T03:39:27.796Z,1.81
2023-04-28T03:41:58.272Z,1.77
2023-04-28T03:44:45.724Z,1.85
2023-04-28T03:47:14.804Z,1.91
2023-04-28T03:49:43.810Z,1.95
2023-04-28T03:52:12.252Z,1.99
2023-04-28T03:54:41.518Z,1.97
2023-04-28T03:57:12.511Z,1.99
2023-04-28T03:59:42.516Z,2.03
2023-04-28T04:02:12.226Z,2.08
2023-04-28T04:04:41.173Z,2.15
2023-04-28T04:07:10.373Z,2.20
2023-04-28T04:09:38.842Z,2.28
2023-04-28T04:12:08.677Z,2.32
2023-04-28T04:14:38.569Z,2.38
2023-04-28T04:17:06.931Z,2.49
2023-04-28T04:19:35.436Z,2.55
2023-04-28T04:22:03.950Z,2.67
2023-04-28T04:24:32.926Z,2.79
2023-04-28T04:27:01.298Z,2.90
2023-04-28T04:29:34.667Z,3.03
2023-04-28T04:32:09.872Z,3.17
2023-04-28T04:34:39.759Z,3.30
2023-04-28T04:37:08.826Z,3.43
2023-04-28T04:39:44.902Z,3.59
2023-04-28T04:42:23.912Z,3.70
2023-04-28T04:45:09.944Z,3.82
2023-04-28T04:47:40.058Z,3.88
2023-04-28T04:50:09.815Z,3.96
2023-04-28T04:52:38.702Z,4.02
2023-04-28T04:55:11.341Z,4.03
2023-04-28T04:57:42.717Z,4.06
2023-04-28T05:00:30.717Z,4.15
2023-04-28T05:03:04.900Z,4.22
2023-04-28T05:05:34.924Z,4.30
2023-04-28T05:08:12.938Z,4.39
2023-04-28T05:10:42.853Z,4.41
2023-04-28T05:13:12.608Z,4.43
2023-04-28T05:15:41.937Z,4.43
2023-04-28T05:18:30.549Z,4.43
2023-04-28T05:20:59.527Z,4.42
2023-04-28T05:23:28.415Z,4.40
2023-04-28T05:25:57.383Z,4.38
2023-04-28T05:28:26.497Z,4.36
2023-04-28T05:30:57.735Z,4.33
2023-04-28T05:33:26.306Z,4.28
2023-04-28T05:35:56.739Z,4.28
2023-04-28T05:38:26.277Z,4.30
2023-04-28T05:40:57.895Z,4.45
2023-04-28T05:43:27.547Z,4.57
2023-04-28T05:45:56.946Z,4.73
2023-04-28T05:48:25.713Z,4.93
2023-04-28T05:50:54.160Z,5.14
2023-04-28T05:53:25.093Z,5.39
2023-04-28T05:55:54.261Z,5.62
2023-04-28T05:58:22.817Z,5.78
2023-04-28T06:00:51.683Z,5.95
2023-04-28T06:03:20.340Z,6.18
2023-04-28T06:05:50.678Z,6.43
2023-04-28T06:08:20.697Z,6.70
2023-04-28T06:10:51.169Z,6.90
2023-04-28T06:13:22.286Z,7.14
2023-04-28T06:15:51.420Z,7.35
2023-04-28T06:18:20.283Z,7.59
2023-04-28T06:20:48.947Z,7.76
2023-04-28T06:23:17.667Z,7.91
2023-04-28T06:25:50.854Z,8.06
2023-04-28T06:28:19.427Z,8.20
2023-04-28T06:30:48.486Z,8.32
2023-04-28T06:33:17.152Z,8.49
2023-04-28T06:35:46.722Z,8.61
2023-04-28T06:38:16.469Z,8.81
2023-04-28T06:40:45.887Z,9.02
2023-04-28T06:43:16.153Z,9.19
2023-04-28T06:45:57.655Z,9.35
2023-04-28T06:48:27.270Z,9.58
2023-04-28T06:50:56.672Z,9.68
2023-04-28T06:53:25.583Z,9.90
2023-04-28T06:55:56.911Z,9.98
2023-04-28T06:58:27.590Z,10.15
2023-04-28T07:00:56.589Z,10.31
2023-04-28T07:03:25.485Z,10.59
2023-04-28T07:05:54.166Z,10.76
2023-04-28T07:08:22.819Z,10.93
2023-04-28T07:10:51.800Z,11.07
2023-04-28T07:13:20.335Z,11.20
2023-04-28T07:15:50.698Z,11.46
2023-04-28T07:18:19.360Z,11.54
2023-04-28T07:20:48.501Z,11.58
2023-04-28T07:23:17.188Z,11.78
2023-04-28T07:25:46.521Z,11.97
2023-04-28T07:28:16.429Z,12.09
2023-04-28T07:30:45.143Z,12.22
2023-04-28T07:33:15.240Z,12.33
2023-04-28T07:35:44.178Z,12.50
2023-04-28T07:38:12.993Z,12.57
2023-04-28T07:40:43.353Z,12.32
2023-04-28T07:43:12.344Z,11.88
2023-04-28T07:45:41.652Z,11.65
2023-04-28T07:48:10.539Z,11.84
2023-04-28T07:50:40.708Z,12.42
2023-04-28T07:53:09.651Z,13.01
2023-04-28T07:55:38.930Z,13.21
2023-04-28T07:58:07.949Z,12.98
2023-04-28T08:00:36.993Z,12.78
2023-04-28T08:03:05.897Z,12.47
2023-04-28T08:05:34.801Z,12.24
2023-04-28T08:08:05.298Z,12.07
2023-04-28T08:10:34.213Z,11.92
2023-04-28T08:13:03.116Z,11.83
2023-04-28T08:15:33.497Z,11.89
2023-04-28T08:18:03.630Z,11.82
2023-04-28T08:20:32.818Z,11.82
2023-04-28T08:23:01.679Z,11.78
2023-04-28T08:25:32.230Z,11.63
2023-04-28T08:28:00.983Z,11.54
2023-04-28T08:30:29.560Z,11.52
2023-04-28T08:32:58.197Z,11.76
2023-04-28T08:35:27.103Z,12.29
2023-04-28T08:37:56.002Z,12.91
2023-04-28T08:40:25.436Z,13.74
2023-04-28T08:42:57.059Z,14.19
2023-04-28T08:45:28.302Z,14.42
2023-04-28T08:47:59.713Z,14.75
2023-04-28T08:50:32.602Z,15.25
2023-04-28T08:53:06.102Z,15.37
2023-04-28T08:55:36.912Z,14.81
2023-04-28T08:58:09.475Z,14.49
2023-04-28T09:00:39.057Z,14.38
2023-04-28T09:03:09.366Z,14.43
2023-04-28T09:05:38.333Z,14.75
2023-04-28T09:08:07.348Z,15.44
2023-04-28T09:10:36.192Z,15.86
2023-04-28T09:13:06.320Z,15.87
2023-04-28T09:15:38.414Z,15.70
2023-04-28T09:18:08.398Z,15.94
2023-04-28T09:20:37.961Z,16.18
2023-04-28T09:23:17.902Z,16.31
2023-04-28T09:26:01.938Z,15.95
2023-04-28T09:28:32.721Z,15.71
2023-04-28T09:31:01.763Z,16.02
2023-04-28T09:33:30.566Z,16.41
2023-04-28T09:35:59.336Z,16.63
2023-04-28T09:38:28.494Z,16.83
2023-04-28T09:41:00.709Z,16.85
2023-04-28T09:43:32.496Z,17.29
2023-04-28T09:46:03.335Z,17.72
2023-04-28T09:48:33.909Z,17.10
2023-04-28T09:51:04.248Z,16.20
2023-04-28T09:53:33.832Z,16.02
2023-04-28T09:56:05.360Z,15.78
2023-04-28T09:58:41.319Z,15.70
2023-04-28T10:01:13.066Z,15.66
2023-04-28T10:03:44.732Z,15.48
2023-04-28T10:06:13.651Z,15.21
2023-04-28T10:08:43.253Z,14.93
2023-04-28T10:11:13.642Z,14.60
2023-04-28T10:13:44.389Z,14.86
2023-04-28T10:16:13.285Z,15.66
2023-04-28T10:18:43.264Z,16.33
2023-04-28T10:21:14.959Z,17.06
2023-04-28T10:24:09.591Z,17.32
2023-04-28T10:27:09.745Z,17.20
2023-04-28T10:29:40.087Z,16.83
2023-04-28T10:32:23.648Z,16.62
2023-04-28T10:34:52.905Z,16.47
2023-04-28T10:37:22.206Z,15.98
2023-04-28T10:40:36.740Z,16.36
2023-04-28T10:43:06.103Z,16.56
2023-04-28T10:46:06.711Z,16.16
2023-04-28T10:48:56.128Z,15.77
2023-04-28T10:51:36.737Z,15.42
2023-04-28T10:54:19.563Z,15.08
2023-04-28T10:57:29.473Z,14.93
2023-04-28T11:00:31.783Z,15.19
2023-04-28T11:03:01.684Z,16.27
2023-04-28T11:05:32.146Z,16.83
2023-04-28T11:08:34.024Z,16.49
2023-04-28T11:11:26.177Z,16.31
2023-04-28T11:13:56.994Z,15.89
2023-04-28T11:16:27.097Z,15.66
2023-04-28T11:19:05.008Z,15.59
2023-04-28T11:21:35.052Z,15.68
2023-04-28T11:24:10.854Z,16.44
2023-04-28T11:26:40.007Z,16.74
2023-04-28T11:29:09.365Z,16.52
2023-04-28T11:31:40.610Z,16.14
2023-04-28T11:34:15.451Z,16.05
2023-04-28T11:36:44.550Z,16.44
2023-04-28T11:39:14.846Z,16.44
2023-04-28T11:41:45.241Z,16.20
2023-04-28T11:44:15.377Z,16.10
2023-04-28T11:46:51.024Z,15.98
2023-04-28T11:49:22.052Z,15.92
2023-04-28T11:51:50.865Z,16.01
2023-04-28T11:54:24.107Z,16.27
2023-04-28T11:56:54.391Z,16.41
2023-04-28T11:59:26.794Z,16.37
2023-04-28T12:01:59.292Z,16.40
2023-04-28T12:04:32.827Z,16.58
2023-04-28T12:07:05.086Z,16.34
2023-04-28T12:09:35.528Z,16.93
2023-04-28T12:12:05.367Z,17.09
2023-04-28T12:14:36.051Z,17.66
2023-04-28T12:17:05.513Z,18.02
2023-04-28T12:19:47.002Z,18.64
2023-04-28T12:22:17.777Z,19.33
2023-04-28T12:24:47.120Z,19.54
2023-04-28T12:27:18.010Z,19.65
2023-04-28T12:29:49.922Z,19.90
2023-04-28T12:32:20.461Z,20.20
2023-04-28T12:34:51.543Z,19.74
2023-04-28T12:37:22.698Z,19.11
2023-04-28T12:39:51.412Z,18.97
2023-04-28T12:42:20.422Z,18.53
2023-04-28T12:44:50.532Z,18.24
2023-04-28T12:47:19.473Z,17.72
2023-04-28T12:49:50.270Z,17.37
2023-04-28T12:52:20.941Z,17.88
2023-04-28T12:54:50.166Z,18.85
2023-04-28T12:57:19.443Z,19.23
2023-04-28T12:59:50.646Z,19.77
2023-04-28T13:02:20.105Z,20.24
2023-04-28T13:04:49.124Z,20.36
2023-04-28T13:07:19.532Z,20.71
2023-04-28T13:09:48.807Z,20.75
2023-04-28T13:12:17.725Z,20.75
2023-04-28T13:14:46.724Z,20.73
2023-04-28T13:17:16.803Z,20.86
2023-04-28T13:19:46.162Z,20.79
2023-04-28T13:22:15.277Z,20.19
2023-04-28T13:24:45.743Z,20.17
2023-04-28T13:27:14.708Z,20.26
2023-04-28T13:29:43.318Z,19.96
2023-04-28T13:32:12.006Z,19.89
2023-04-28T13:34:41.153Z,20.16
2023-04-28T13:37:10.806Z,20.49
2023-04-28T13:39:39.461Z,20.13
2023-04-28T13:42:10.008Z,19.78
2023-04-28T13:44:38.803Z,19.49
2023-04-28T13:47:09.371Z,19.41
2023-04-28T13:49:40.077Z,19.16
2023-04-28T13:52:08.840Z,19.03
2023-04-28T13:54:37.304Z,19.06
2023-04-28T13:57:05.776Z,19.09
2023-04-28T13:59:36.169Z,19.26
2023-04-28T14:02:04.855Z,19.40
2023-04-28T14:04:34.037Z,19.01
2023-04-28T14:07:03.049Z,18.95
2023-04-28T14:09:32.909Z,19.12
2023-04-28T14:12:02.497Z,19.14
2023-04-28T14:14:31.835Z,18.97
2023-04-28T14:17:02.373Z,18.76
2023-04-28T14:19:31.102Z,18.57
2023-04-28T14:21:59.757Z,18.32
2023-04-28T14:24:28.529Z,17.94
2023-04-28T14:26:57.345Z,18.10
2023-04-28T14:29:25.864Z,18.11
2023-04-28T14:31:54.501Z,18.35
2023-04-28T14:34:24.552Z,18.52
2023-04-28T14:36:53.276Z,18.31
2023-04-28T14:39:21.863Z,17.98
2023-04-28T14:41:50.965Z,17.73
2023-04-28T14:44:23.375Z,17.54
2023-04-28T14:46:52.097Z,17.57
2023-04-28T14:49:21.131Z,17.57
2023-04-28T14:51:52.228Z,17.26
2023-04-28T14:54:22.012Z,17.09
2023-04-28T14:56:51.436Z,17.14
2023-04-28T14:59:20.745Z,17.00
2023-04-28T15:01:51.077Z,16.99
2023-04-28T15:04:20.309Z,17.03
2023-04-28T15:06:49.241Z,17.01
2023-04-28T15:09:19.456Z,17.15
2023-04-28T15:11:48.182Z,17.36
2023-04-28T15:14:16.939Z,17.48
2023-04-28T15:16:47.343Z,17.39
2023-04-28T15:19:16.577Z,17.20
2023-04-28T15:21:45.638Z,17.02
2023-04-28T15:24:14.329Z,16.86
2023-04-28T15:26:44.347Z,16.66
2023-04-28T15:29:12.819Z,16.47
2023-04-28T15:31:41.823Z,16.43
2023-04-28T15:34:10.630Z,16.38
2023-04-28T15:36:40.454Z,16.25
2023-04-28T15:39:09.281Z,16.04
2023-04-28T15:41:38.780Z,15.86
2023-04-28T15:44:10.011Z,15.76
2023-04-28T15:46:39.162Z,15.69
2023-04-28T15:49:08.291Z,15.66
2023-04-28T15:51:37.251Z,15.72
2023-04-28T15:54:06.481Z,15.75
2023-04-28T15:56:35.608Z,15.72
2023-04-28T15:59:04.778Z,15.67
2023-04-28T16:01:35.093Z,15.63
2023-04-28T16:04:04.007Z,15.51
2023-04-28T16:06:38.392Z,15.33
2023-04-28T16:09:07.571Z,15.15
2023-04-28T16:11:36.581Z,15.07
2023-04-28T16:14:05.571Z,15.00
2023-04-28T16:16:35.887Z,14.88
2023-04-28T16:19:04.772Z,14.78
2023-04-28T16:21:33.712Z,14.69
2023-04-28T16:24:03.117Z,14.57
2023-04-28T16:26:31.917Z,14.51
2023-04-28T16:29:02.106Z,14.42
2023-04-28T16:31:30.946Z,14.32
2023-04-28T16:34:01.254Z,14.21
2023-04-28T16:36:33.155Z,14.19
2023-04-28T16:39:01.544Z,14.13
2023-04-28T16:41:30.321Z,14.04
2023-04-28T16:43:59.065Z,13.93
2023-04-28T16:46:27.774Z,13.79
2023-04-28T16:48:57.016Z,13.70
2023-04-28T16:51:29.624Z,13.64
2023-04-28T16:53:58.648Z,13.56
2023-04-28T16:56:27.642Z,13.46
2023-04-28T16:58:56.817Z,13.33
2023-04-28T17:01:26.447Z,13.20
2023-04-28T17:03:55.871Z,13.08
2023-04-28T17:06:30.089Z,12.94
2023-04-28T17:08:59.103Z,12.77
2023-04-28T17:11:27.869Z,12.54
2023-04-28T17:13:58.135Z,12.34
2023-04-28T17:16:26.926Z,12.17
2023-04-28T17:18:56.258Z,12.02
2023-04-28T17:21:29.390Z,11.87
2023-04-28T17:23:59.052Z,11.76
2023-04-28T17:26:29.259Z,11.62
2023-04-28T17:28:59.072Z,11.47
2023-04-28T17:31:28.450Z,11.33
2023-04-28T17:33:59.670Z,11.18
2023-04-28T17:36:30.626Z,11.03
2023-04-28T17:38:59.151Z,10.89
2023-04-28T17:41:27.926Z,10.75
2023-04-28T17:43:56.607Z,10.61
2023-04-28T17:46:25.473Z,10.48
2023-04-28T17:48:54.760Z,10.35
2023-04-28T17:51:23.608Z,10.25
2023-04-28T17:53:56.925Z,10.13
2023-04-28T17:56:26.028Z,10.04
2023-04-28T17:58:55.574Z,9.99
2023-04-28T18:01:24.416Z,9.91
2023-04-28T18:03:55.897Z,9.82
2023-04-28T18:06:24.734Z,9.72
2023-04-28T18:08:55.003Z,9.66
2023-04-28T18:11:23.552Z,9.60
2023-04-28T18:13:52.176Z,9.49
2023-04-28T18:16:20.939Z,9.47
2023-04-28T18:18:50.328Z,9.39
2023-04-28T18:21:18.867Z,9.38
2023-04-28T18:23:48.451Z,9.35
2023-04-28T18:26:18.304Z,9.34
2023-04-28T18:28:48.749Z,9.38
2023-04-28T18:31:17.785Z,9.37
2023-04-28T18:33:47.411Z,9.24
2023-04-28T18:36:16.225Z,9.13
2023-04-28T18:38:45.191Z,9.12
2023-04-28T18:41:15.084Z,9.05
2023-04-28T18:43:46.219Z,9.00
2023-04-28T18:46:14.962Z,9.04
2023-04-28T18:48:43.882Z,9.14
2023-04-28T18:51:12.716Z,9.22
2023-04-28T18:53:41.916Z,9.28
2023-04-28T18:56:10.453Z,9.27
2023-04-28T18:58:41.004Z,9.26
2023-04-28T19:01:16.276Z,9.24
2023-04-28T19:03:47.195Z,9.23
2023-04-28T19:06:16.543Z,9.23
2023-04-28T19:08:45.278Z,9.20
2023-04-28T19:11:14.124Z,9.18
2023-04-28T19:13:45.033Z,9.21
2023-04-28T19:16:15.160Z,9.12
2023-04-28T19:18:44.714Z,9.02
2023-04-28T19:21:14.249Z,8.82
2023-04-28T19:23:43.496Z,8.63
2023-04-28T19:26:13.522Z,8.39
2023-04-28T19:28:43.215Z,8.18
2023-04-28T19:31:12.363Z,8.03
2023-04-28T19:33:42.434Z,7.87
2023-04-28T19:36:11.013Z,7.79
2023-04-28T19:38:40.456Z,7.69
2023-04-28T19:41:09.069Z,7.59
2023-04-28T19:43:40.020Z,7.51
2023-04-28T19:46:09.088Z,7.39
2023-04-28T19:48:38.182Z,7.32
2023-04-28T19:51:08.499Z,7.24
2023-04-28T19:53:40.685Z,7.22
2023-04-28T19:56:10.513Z,7.19
2023-04-28T19:58:42.367Z,7.18
2023-04-28T20:01:11.074Z,7.14
2023-04-28T20:03:40.171Z,7.12
2023-04-28T20:06:10.824Z,7.08
2023-04-28T20:08:39.685Z,7.02
2023-04-28T20:11:08.556Z,6.99
2023-04-28T20:13:37.852Z,6.94
2023-04-28T20:16:08.253Z,6.92
2023-04-28T20:18:40.039Z,6.88
2023-04-28T20:21:09.901Z,6.84
2023-04-28T20:23:40.649Z,6.76
2023-04-28T20:26:15.321Z,6.71
2023-04-28T20:28:45.384Z,6.65
2023-04-28T20:31:15.370Z,6.62
2023-04-28T20:33:44.511Z,6.58
2023-04-28T20:36:14.382Z,6.54
2023-04-28T20:38:44.629Z,6.53
2023-04-28T20:41:13.436Z,6.51
2023-04-28T20:43:42.432Z,6.50
2023-04-28T20:46:12.785Z,6.50
2023-04-28T20:48:42.419Z,6.50
2023-04-28T20:51:11.490Z,6.47
2023-04-28T20:53:40.866Z,6.44
2023-04-28T20:56:11.529Z,6.44
2023-04-28T20:58:42.546Z,6.41
2023-04-28T21:01:12.301Z,6.39
2023-04-28T21:03:41.552Z,6.38
2023-04-28T21:06:10.645Z,6.41
2023-04-28T21:08:40.975Z,6.40
2023-04-28T21:11:14.495Z,6.36
2023-04-28T21:13:43.509Z,6.32
2023-04-28T21:16:20.245Z,6.28
2023-04-28T21:18:50.207Z,6.23
2023-04-28T21:21:18.805Z,6.17
2023-04-28T21:23:48.009Z,6.14
2023-04-28T21:26:20.833Z,6.08
2023-04-28T21:28:50.548Z,6.08
2023-04-28T21:31:21.992Z,6.03
2023-04-28T21:33:50.872Z,5.96
2023-04-28T21:36:20.005Z,5.91
2023-04-28T21:38:49.313Z,5.87
2023-04-28T21:41:20.507Z,5.89
2023-04-28T21:43:49.273Z,5.89
2023-04-28T21:46:19.547Z,5.86
2023-04-28T21:48:49.274Z,5.87
2023-04-28T21:51:19.295Z,5.85
2023-04-28T21:53:47.982Z,5.89
2023-04-28T21:56:17.612Z,5.86
2023-04-28T21:58:48.130Z,5.86
2023-04-28T22:01:18.146Z,5.88
2023-04-28T22:03:47.224Z,5.89
2023-04-28T22:06:15.766Z,5.84
2023-04-28T22:08:44.299Z,5.78
2023-04-28T22:11:12.647Z,5.74
2023-04-28T22:13:41.356Z,5.78
2023-04-28T22:16:13.576Z,5.76
2023-04-28T22:18:42.111Z,5.78
2023-04-28T22:21:11.392Z,5.76
2023-04-28T22:23:40.065Z,5.75
2023-04-28T22:26:08.555Z,5.74
2023-04-28T22:28:37.650Z,5.65
2023-04-28T22:31:06.724Z,5.65
2023-04-28T22:33:38.834Z,5.58
2023-04-28T22:36:08.551Z,5.54
2023-04-28T22:38:39.138Z,5.52
2023-04-28T22:41:07.780Z,5.53
2023-04-28T22:43:36.283Z,5.52
2023-04-28T22:46:04.812Z,5.53
2023-04-28T22:48:33.580Z,5.50
2023-04-28T22:51:03.349Z,5.50
2023-04-28T22:53:32.111Z,5.51
2023-04-28T22:56:03.190Z,5.53
2023-04-28T22:58:31.618Z,5.53
2023-04-28T23:01:02.136Z,5.60
2023-04-28T23:03:31.307Z,5.62
2023-04-28T23:06:00.053Z,5.65
2023-04-28T23:08:30.261Z,5.62
2023-04-28T23:10:59.230Z,5.55
2023-04-28T23:13:28.060Z,5.53
2023-04-28T23:16:00.535Z,5.50
2023-04-28T23:18:34.458Z,5.41
2023-04-28T23:21:02.819Z,5.35
2023-04-28T23:23:33.847Z,5.30
2023-04-28T23:26:02.400Z,5.27
2023-04-28T23:28:31.170Z,5.30
2023-04-28T23:30:59.796Z,5.27
2023-04-28T23:33:29.712Z,5.21
2023-04-28T23:35:58.376Z,5.14
2023-04-28T23:38:27.548Z,5.11
2023-04-28T23:40:57.524Z,5.10
2023-04-28T23:43:26.323Z,5.10
2023-04-28T23:45:54.954Z,5.05
2023-04-28T23:48:23.712Z,5.07
2023-04-28T23:50:53.629Z,5.07
2023-04-28T23:53:22.264Z,5.07
2023-04-28T23:55:50.756Z,5.07
2023-04-28T23:58:20.710Z,5.09
